Time;durP1;ratioP1;P1;durP2;ratioP2;P2;SDS_P1;SDS_P2;PMS_P1;PMS_P2;Temp;Humidity;BMP_temperature;BMP_pressure;BME280_temperature;BME280_humidity;BME280_pressure;Samples;Min_cycle;Max_cycle;Signal;HPM_P1;HPM_P2
2021/04/27 21:23:19;;;;;;;;;;;;;;;21.62;20.25;99825.00;4963867;27;19929;-48
2021/04/27 21:40:50;;;;;;;;;34.60;31.20;;;;;20.93;21.10;99834.53;4920819;27;13521;-48
2021/04/27 21:43:15;;;;;;;;;32.50;28.00;;;;;20.92;21.03;99832.97;4981052;28;15282;-51
2021/04/27 21:45:41;;;;;;;;;32.00;29.00;;;;;21.27;19.56;99833.50;4995064;28;8834;-52
2021/04/27 21:48:07;;;;;;;;;30.20;25.40;;;;;21.63;18.85;99831.28;5000274;28;8808;-49
2021/04/27 21:50:32;;;;;;;;;24.50;23.50;;;;;21.77;18.58;99829.03;4967803;28;12003;-51
2021/04/27 21:52:57;;;;;;;;;20.00;19.00;;;;;21.85;18.17;99830.91;4968594;28;12975;-51
2021/04/27 21:55:23;;;;;;;;;20.75;19.75;;;;;21.96;17.91;99833.22;5000458;28;9576;-49
2021/04/27 21:57:48;;;;;;;;;20.75;17.75;;;;;21.93;17.86;99830.00;5004424;28;8820;-49
2021/04/27 22:00:27;;;;;;;;;16.00;15.00;;;;;21.97;17.92;99837.56;4997286;28;8986;-50
2021/04/27 22:02:53;;;;;;;;;15.00;15.00;;;;;22.00;17.97;99843.16;5061541;23;8906;-53
2021/04/27 22:05:18;;;;;;;;;15.00;13.25;;;;;22.08;17.88;99838.75;5029686;28;8818;-49
2021/04/27 22:07:43;;;;;;;;;13.25;12.50;;;;;22.15;17.81;99843.69;5028260;28;8814;-49
2021/04/27 22:10:10;;;;;;;;;12.50;11.75;;;;;22.18;17.88;99837.47;5009111;28;8875;-48
2021/04/27 22:12:35;;;;;;;;;14.80;12.00;;;;;22.18;17.71;99838.31;5023608;28;9568;-50
2021/04/27 22:15:02;;;;;;;;;14.00;14.00;;;;;22.21;17.92;99853.28;4993818;28;13117;-52
2021/04/27 22:17:27;;;;;;;;;11.80;11.80;;;;;22.29;17.72;99841.44;5023504;28;8814;-49
2021/04/27 22:22:16;;;;;;;;;11.80;10.80;;;;;23.44;17.08;99843.00;5003551;28;13592;-50
2021/04/27 22:24:41;;;;;;;;;5.00;5.00;;;;;23.17;18.50;99841.06;4978568;28;12835;-48
2021/04/27 22:27:07;;;;;;;;;5.75;5.00;;;;;23.01;17.86;99840.94;4948800;28;13041;-48
2021/04/27 22:29:34;;;;;;;;;3.25;3.25;;;;;23.03;18.39;99842.19;4971553;28;14124;-49
2021/04/27 22:31:59;;;;;;;;;4.60;4.00;;;;;23.00;18.46;99842.88;4994978;28;12147;-49
2021/04/27 22:34:24;;;;;;;;;3.00;3.00;;;;;23.01;17.56;99844.50;4997645;28;8806;-50
2021/04/27 22:36:49;;;;;;;;;4.00;4.00;;;;;21.89;19.22;99847.50;4996520;28;8939;-46
2021/04/27 22:39:15;;;;;;;;;5.00;4.75;;;;;22.35;18.13;99842.78;4997688;28;12706;-49
2021/04/27 22:41:40;;;;;;;;;4.50;4.50;;;;;22.68;18.17;99844.66;4994539;28;8809;-54
2021/04/27 22:44:06;;;;;;;;;6.00;4.75;;;;;22.77;17.33;99844.53;4996115;28;8839;-50
2021/04/27 22:46:33;;;;;;;;;4.25;4.00;;;;;22.86;17.31;99834.19;4992549;28;8844;-49
2021/04/27 22:48:59;;;;;;;;;4.00;4.00;;;;;22.91;17.05;99839.47;4995135;28;8796;-54
2021/04/27 22:51:24;;;;;;;;;5.75;5.00;;;;;22.98;16.94;99836.94;4997343;28;8791;-52
2021/04/27 22:53:49;;;;;;;;;2.25;2.25;;;;;23.04;16.77;99840.22;4994932;28;8838;-54
2021/04/27 22:56:14;;;;;;;;;4.00;3.50;;;;;23.10;16.84;99838.09;4985165;28;8792;-52
2021/04/27 22:58:40;;;;;;;;;3.00;3.00;;;;;23.02;16.82;99840.59;4984463;28;8878;-54
2021/04/27 23:01:05;;;;;;;;;4.00;4.00;;;;;23.00;16.86;99840.13;4992557;28;8820;-52
2021/04/27 23:03:30;;;;;;;;;3.00;3.00;;;;;23.09;16.73;99844.72;4966814;28;8818;-51
2021/04/27 23:05:56;;;;;;;;;2.50;2.50;;;;;23.14;16.63;99839.00;4972378;28;8795;-51
2021/04/27 23:08:21;;;;;;;;;3.50;3.50;;;;;23.16;16.74;99833.94;4967693;28;8822;-51
2021/04/27 23:10:47;;;;;;;;;3.25;3.00;;;;;23.18;16.68;99831.63;4974852;28;8795;-49
2021/04/27 23:13:12;;;;;;;;;5.00;5.00;;;;;23.33;16.71;99830.13;4969658;28;8811;-49
2021/04/27 23:15:38;;;;;;;;;3.00;3.00;;;;;23.23;16.80;99832.19;4974548;28;8794;-48
2021/04/27 23:18:04;;;;;;;;;4.00;4.00;;;;;22.85;16.99;99832.59;4974303;28;8825;-48
2021/04/27 23:20:31;;;;;;;;;3.00;3.00;;;;;22.98;16.88;99836.13;4974513;28;8871;-48
2021/04/27 23:22:57;;;;;;;;;2.60;2.60;;;;;22.97;17.56;99824.34;4989531;28;8872;-48
2021/04/27 23:25:24;;;;;;;;;3.00;3.00;;;;;22.92;17.33;99835.56;4991920;28;9527;-47
2021/04/27 23:27:50;;;;;;;;;3.00;3.00;;;;;22.34;18.09;99829.41;4987723;28;8816;-48
2021/04/27 23:30:18;;;;;;;;;3.00;3.00;;;;;22.12;18.04;99836.91;4991458;28;8839;-48
2021/04/27 23:32:45;;;;;;;;;2.40;2.40;;;;;21.94;18.29;99823.38;4982047;28;8768;-47
2021/04/27 23:35:12;;;;;;;;;3.00;2.80;;;;;21.88;18.29;99822.00;4979643;28;8786;-48
2021/04/27 23:37:38;;;;;;;;;2.00;2.00;;;;;21.78;18.47;99830.66;4976532;28;8723;-47
2021/04/27 23:40:08;;;;;;;;;4.00;3.00;;;;;21.68;18.43;99831.88;4981975;28;8879;-47
2021/04/27 23:42:34;;;;;;;;;2.00;2.00;;;;;21.63;18.58;99828.53;4956992;28;8853;-47
2021/04/27 23:45:00;;;;;;;;;3.00;3.00;;;;;21.58;18.63;99826.00;4976701;28;8798;-47
2021/04/27 23:47:25;;;;;;;;;2.40;2.40;;;;;21.55;18.76;99825.53;4983957;28;8805;-47
2021/04/27 23:49:51;;;;;;;;;3.00;2.00;;;;;21.50;18.73;99825.75;4985299;28;8773;-47
2021/04/27 23:52:17;;;;;;;;;3.00;3.00;;;;;21.45;18.74;99831.41;4979989;28;8971;-47
2021/04/27 23:54:42;;;;;;;;;3.00;3.00;;;;;21.43;18.70;99825.47;4988953;28;8832;-47
2021/04/27 23:57:08;;;;;;;;;3.00;3.00;;;;;21.36;18.87;99827.94;4981619;28;8817;-47
2021/04/27 23:59:33;;;;;;;;;3.00;3.00;;;;;21.35;18.71;99829.06;4980417;28;8815;-48
